sensor_id;sensor_type;location;lat;lon;timestamp;temperature;humidity
10263;DHT22;5177;50.068;8.156;2022-07-05T00:01:50;19.60;99.90
10263;DHT22;5177;50.068;8.156;2022-07-05T00:04:16;19.60;99.90
10263;DHT22;5177;50.068;8.156;2022-07-05T00:06:41;19.60;99.90
10263;DHT22;5177;50.068;8.156;2022-07-05T00:09:27;19.50;99.90
10263;DHT22;5177;50.068;8.156;2022-07-05T00:11:52;19.50;99.90
10263;DHT22;5177;50.068;8.156;2022-07-05T00:14:18;19.50;99.90
10263;DHT22;5177;50.068;8.156;2022-07-05T00:16:43;19.40;99.90
10263;DHT22;5177;50.068;8.156;2022-07-05T00:19:09;19.40;99.90
10263;DHT22;5177;50.068;8.156;2022-07-05T00:21:34;19.30;99.90
10263;DHT22;5177;50.068;8.156;2022-07-05T00:24:00;19.20;99.90
10263;DHT22;5177;50.068;8.156;2022-07-05T00:26:25;19.20;99.90
10263;DHT22;5177;50.068;8.156;2022-07-05T00:28:51;19.10;99.90
10263;DHT22;5177;50.068;8.156;2022-07-05T00:31:16;19.10;99.90
10263;DHT22;5177;50.068;8.156;2022-07-05T00:33:42;19.00;99.90
10263;DHT22;5177;50.068;8.156;2022-07-05T00:36:07;19.00;99.90
10263;DHT22;5177;50.068;8.156;2022-07-05T00:38:33;18.90;99.90
10263;DHT22;5177;50.068;8.156;2022-07-05T00:40:58;18.90;99.90
10263;DHT22;5177;50.068;8.156;2022-07-05T00:43:24;19.00;99.90
10263;DHT22;5177;50.068;8.156;2022-07-05T00:45:49;18.90;99.90
10263;DHT22;5177;50.068;8.156;2022-07-05T00:48:14;18.90;99.90
10263;DHT22;5177;50.068;8.156;2022-07-05T00:50:40;18.90;99.90
10263;DHT22;5177;50.068;8.156;2022-07-05T00:53:06;18.80;99.90
10263;DHT22;5177;50.068;8.156;2022-07-05T00:55:32;18.80;99.90
10263;DHT22;5177;50.068;8.156;2022-07-05T00:57:58;18.80;99.90
10263;DHT22;5177;50.068;8.156;2022-07-05T01:00:23;18.80;99.90
10263;DHT22;5177;50.068;8.156;2022-07-05T01:02:49;18.80;99.90
10263;DHT22;5177;50.068;8.156;2022-07-05T01:05:14;18.90;99.90
10263;DHT22;5177;50.068;8.156;2022-07-05T01:07:40;18.80;99.90
10263;DHT22;5177;50.068;8.156;2022-07-05T01:10:05;18.80;99.90
10263;DHT22;5177;50.068;8.156;2022-07-05T01:12:31;18.80;99.90
10263;DHT22;5177;50.068;8.156;2022-07-05T01:14:57;18.80;99.90
10263;DHT22;5177;50.068;8.156;2022-07-05T01:17:22;18.80;99.90
10263;DHT22;5177;50.068;8.156;2022-07-05T01:19:48;18.80;99.90
10263;DHT22;5177;50.068;8.156;2022-07-05T01:22:20;18.80;99.90
10263;DHT22;5177;50.068;8.156;2022-07-05T01:24:46;18.70;99.90
10263;DHT22;5177;50.068;8.156;2022-07-05T01:27:12;18.70;99.90
10263;DHT22;5177;50.068;8.156;2022-07-05T01:29:37;18.70;99.90
10263;DHT22;5177;50.068;8.156;2022-07-05T01:32:03;18.70;99.90
10263;DHT22;5177;50.068;8.156;2022-07-05T01:34:29;18.70;99.90
10263;DHT22;5177;50.068;8.156;2022-07-05T01:36:54;18.70;99.90
10263;DHT22;5177;50.068;8.156;2022-07-05T01:39:20;18.70;99.90
10263;DHT22;5177;50.068;8.156;2022-07-05T01:41:46;18.70;99.90
10263;DHT22;5177;50.068;8.156;2022-07-05T01:44:12;18.60;99.90
10263;DHT22;5177;50.068;8.156;2022-07-05T01:46:38;18.60;99.90
10263;DHT22;5177;50.068;8.156;2022-07-05T01:49:06;18.50;99.90
10263;DHT22;5177;50.068;8.156;2022-07-05T01:51:41;18.50;99.90
10263;DHT22;5177;50.068;8.156;2022-07-05T01:54:08;18.40;99.90
10263;DHT22;5177;50.068;8.156;2022-07-05T01:56:33;18.40;99.90
10263;DHT22;5177;50.068;8.156;2022-07-05T01:58:59;18.40;99.90
10263;DHT22;5177;50.068;8.156;2022-07-05T02:01:31;18.40;99.90
10263;DHT22;5177;50.068;8.156;2022-07-05T02:03:57;18.30;99.90
10263;DHT22;5177;50.068;8.156;2022-07-05T02:06:22;18.30;99.90
10263;DHT22;5177;50.068;8.156;2022-07-05T02:08:48;18.30;99.90
10263;DHT22;5177;50.068;8.156;2022-07-05T02:11:13;18.10;99.90
10263;DHT22;5177;50.068;8.156;2022-07-05T02:13:39;18.10;99.90
10263;DHT22;5177;50.068;8.156;2022-07-05T02:16:04;18.10;99.90
10263;DHT22;5177;50.068;8.156;2022-07-05T02:18:30;18.00;99.90
10263;DHT22;5177;50.068;8.156;2022-07-05T02:20:55;18.00;99.90
10263;DHT22;5177;50.068;8.156;2022-07-05T02:23:21;18.00;99.90
10263;DHT22;5177;50.068;8.156;2022-07-05T02:25:46;17.90;99.90
10263;DHT22;5177;50.068;8.156;2022-07-05T02:28:12;17.90;99.90
10263;DHT22;5177;50.068;8.156;2022-07-05T02:30:37;17.80;99.90
10263;DHT22;5177;50.068;8.156;2022-07-05T02:33:02;17.80;99.90
10263;DHT22;5177;50.068;8.156;2022-07-05T02:35:28;17.80;99.90
10263;DHT22;5177;50.068;8.156;2022-07-05T02:37:53;17.80;99.90
10263;DHT22;5177;50.068;8.156;2022-07-05T02:40:19;17.70;99.90
10263;DHT22;5177;50.068;8.156;2022-07-05T02:42:44;17.60;99.90
10263;DHT22;5177;50.068;8.156;2022-07-05T02:45:10;17.60;99.90
10263;DHT22;5177;50.068;8.156;2022-07-05T02:47:35;17.50;99.90
10263;DHT22;5177;50.068;8.156;2022-07-05T02:50:05;17.50;99.90
10263;DHT22;5177;50.068;8.156;2022-07-05T02:52:30;17.40;99.90
10263;DHT22;5177;50.068;8.156;2022-07-05T02:54:56;17.40;99.90
10263;DHT22;5177;50.068;8.156;2022-07-05T02:57:21;17.40;99.90
10263;DHT22;5177;50.068;8.156;2022-07-05T02:59:47;17.40;99.90
10263;DHT22;5177;50.068;8.156;2022-07-05T03:02:12;17.40;99.90
10263;DHT22;5177;50.068;8.156;2022-07-05T03:04:38;17.40;99.90
10263;DHT22;5177;50.068;8.156;2022-07-05T03:07:03;17.40;99.90
10263;DHT22;5177;50.068;8.156;2022-07-05T03:09:29;17.40;99.90
10263;DHT22;5177;50.068;8.156;2022-07-05T03:11:54;17.40;99.90
10263;DHT22;5177;50.068;8.156;2022-07-05T03:14:20;17.40;99.90
10263;DHT22;5177;50.068;8.156;2022-07-05T03:16:45;17.40;99.90
10263;DHT22;5177;50.068;8.156;2022-07-05T03:19:11;17.40;99.90
10263;DHT22;5177;50.068;8.156;2022-07-05T03:21:36;17.40;99.90
10263;DHT22;5177;50.068;8.156;2022-07-05T03:24:02;17.40;99.90
10263;DHT22;5177;50.068;8.156;2022-07-05T03:26:27;17.40;99.90
10263;DHT22;5177;50.068;8.156;2022-07-05T03:28:53;17.40;99.90
10263;DHT22;5177;50.068;8.156;2022-07-05T03:31:18;17.40;99.90
10263;DHT22;5177;50.068;8.156;2022-07-05T03:33:44;17.40;99.90
10263;DHT22;5177;50.068;8.156;2022-07-05T03:36:09;17.50;99.90
10263;DHT22;5177;50.068;8.156;2022-07-05T03:38:35;17.40;99.90
10263;DHT22;5177;50.068;8.156;2022-07-05T03:41:01;17.50;99.90
10263;DHT22;5177;50.068;8.156;2022-07-05T03:43:27;17.50;99.90
10263;DHT22;5177;50.068;8.156;2022-07-05T03:45:52;17.50;99.90
10263;DHT22;5177;50.068;8.156;2022-07-05T03:48:20;17.50;99.90
10263;DHT22;5177;50.068;8.156;2022-07-05T03:50:45;17.50;99.90
10263;DHT22;5177;50.068;8.156;2022-07-05T03:53:11;17.50;99.90
10263;DHT22;5177;50.068;8.156;2022-07-05T03:55:36;17.60;99.90
10263;DHT22;5177;50.068;8.156;2022-07-05T03:58:02;17.50;99.90
10263;DHT22;5177;50.068;8.156;2022-07-05T04:00:27;17.60;99.90
10263;DHT22;5177;50.068;8.156;2022-07-05T04:02:52;17.60;99.90
10263;DHT22;5177;50.068;8.156;2022-07-05T04:05:18;17.60;99.90
10263;DHT22;5177;50.068;8.156;2022-07-05T04:07:47;17.60;99.90
10263;DHT22;5177;50.068;8.156;2022-07-05T04:10:14;17.60;99.90
10263;DHT22;5177;50.068;8.156;2022-07-05T04:12:39;17.60;99.90
10263;DHT22;5177;50.068;8.156;2022-07-05T04:15:05;17.50;99.90
10263;DHT22;5177;50.068;8.156;2022-07-05T04:17:30;17.50;99.90
10263;DHT22;5177;50.068;8.156;2022-07-05T04:19:56;17.60;99.90
10263;DHT22;5177;50.068;8.156;2022-07-05T04:22:21;17.60;99.90
10263;DHT22;5177;50.068;8.156;2022-07-05T04:24:47;17.70;99.90
10263;DHT22;5177;50.068;8.156;2022-07-05T04:27:31;17.80;99.90
10263;DHT22;5177;50.068;8.156;2022-07-05T04:29:56;17.90;99.90
10263;DHT22;5177;50.068;8.156;2022-07-05T04:32:22;17.90;99.90
10263;DHT22;5177;50.068;8.156;2022-07-05T04:34:47;18.00;99.90
10263;DHT22;5177;50.068;8.156;2022-07-05T04:37:12;18.10;99.90
10263;DHT22;5177;50.068;8.156;2022-07-05T04:39:38;18.10;99.90
10263;DHT22;5177;50.068;8.156;2022-07-05T04:42:04;18.10;99.90
10263;DHT22;5177;50.068;8.156;2022-07-05T04:44:29;18.20;99.90
10263;DHT22;5177;50.068;8.156;2022-07-05T04:46:55;18.20;99.90
10263;DHT22;5177;50.068;8.156;2022-07-05T04:49:20;18.10;99.90
10263;DHT22;5177;50.068;8.156;2022-07-05T04:51:45;18.20;99.90
10263;DHT22;5177;50.068;8.156;2022-07-05T04:54:11;18.30;99.90
10263;DHT22;5177;50.068;8.156;2022-07-05T04:56:36;18.30;99.90
10263;DHT22;5177;50.068;8.156;2022-07-05T04:59:02;18.30;99.90
10263;DHT22;5177;50.068;8.156;2022-07-05T05:01:27;18.40;99.90
10263;DHT22;5177;50.068;8.156;2022-07-05T05:03:53;18.30;99.90
10263;DHT22;5177;50.068;8.156;2022-07-05T05:06:18;18.50;99.90
10263;DHT22;5177;50.068;8.156;2022-07-05T05:08:44;18.50;99.90
10263;DHT22;5177;50.068;8.156;2022-07-05T05:11:09;18.60;99.90
10263;DHT22;5177;50.068;8.156;2022-07-05T05:13:35;18.60;99.90
10263;DHT22;5177;50.068;8.156;2022-07-05T05:16:00;18.70;99.90
10263;DHT22;5177;50.068;8.156;2022-07-05T05:18:26;18.80;99.90
10263;DHT22;5177;50.068;8.156;2022-07-05T05:20:52;18.80;99.90
10263;DHT22;5177;50.068;8.156;2022-07-05T05:23:18;18.90;99.90
10263;DHT22;5177;50.068;8.156;2022-07-05T05:25:44;19.10;99.90
10263;DHT22;5177;50.068;8.156;2022-07-05T05:28:09;19.20;99.90
10263;DHT22;5177;50.068;8.156;2022-07-05T05:30:35;19.30;99.90
10263;DHT22;5177;50.068;8.156;2022-07-05T05:33:00;19.40;99.90
10263;DHT22;5177;50.068;8.156;2022-07-05T05:35:26;19.50;99.90
10263;DHT22;5177;50.068;8.156;2022-07-05T05:37:52;19.70;99.90
10263;DHT22;5177;50.068;8.156;2022-07-05T05:40:18;19.70;99.90
10263;DHT22;5177;50.068;8.156;2022-07-05T05:42:44;19.80;99.90
10263;DHT22;5177;50.068;8.156;2022-07-05T05:45:10;19.80;99.90
10263;DHT22;5177;50.068;8.156;2022-07-05T05:50:28;19.90;99.90
10263;DHT22;5177;50.068;8.156;2022-07-05T05:52:53;20.10;99.90
10263;DHT22;5177;50.068;8.156;2022-07-05T05:55:19;20.10;99.90
10263;DHT22;5177;50.068;8.156;2022-07-05T05:57:47;20.20;99.90
10263;DHT22;5177;50.068;8.156;2022-07-05T06:00:13;20.20;99.90
10263;DHT22;5177;50.068;8.156;2022-07-05T06:02:53;20.30;99.90
10263;DHT22;5177;50.068;8.156;2022-07-05T06:05:19;20.30;99.90
10263;DHT22;5177;50.068;8.156;2022-07-05T06:10:13;20.40;99.90
10263;DHT22;5177;50.068;8.156;2022-07-05T06:12:39;20.50;99.90
10263;DHT22;5177;50.068;8.156;2022-07-05T06:15:05;20.60;99.90
10263;DHT22;5177;50.068;8.156;2022-07-05T06:17:35;20.70;99.90
10263;DHT22;5177;50.068;8.156;2022-07-05T06:20:03;20.80;99.90
10263;DHT22;5177;50.068;8.156;2022-07-05T06:22:29;20.80;99.90
10263;DHT22;5177;50.068;8.156;2022-07-05T06:24:55;20.90;99.90
10263;DHT22;5177;50.068;8.156;2022-07-05T06:27:21;20.90;99.90
10263;DHT22;5177;50.068;8.156;2022-07-05T06:29:46;20.90;99.90
10263;DHT22;5177;50.068;8.156;2022-07-05T06:32:12;21.00;99.90
10263;DHT22;5177;50.068;8.156;2022-07-05T06:34:38;21.10;99.90
10263;DHT22;5177;50.068;8.156;2022-07-05T06:37:04;21.20;99.90
10263;DHT22;5177;50.068;8.156;2022-07-05T06:39:30;21.30;99.90
10263;DHT22;5177;50.068;8.156;2022-07-05T06:41:56;21.40;99.90
10263;DHT22;5177;50.068;8.156;2022-07-05T06:44:21;21.50;99.90
10263;DHT22;5177;50.068;8.156;2022-07-05T06:46:46;21.60;99.90
10263;DHT22;5177;50.068;8.156;2022-07-05T06:49:12;21.60;99.90
10263;DHT22;5177;50.068;8.156;2022-07-05T06:51:37;21.70;99.90
10263;DHT22;5177;50.068;8.156;2022-07-05T06:54:03;21.80;99.90
10263;DHT22;5177;50.068;8.156;2022-07-05T06:56:28;21.90;99.90
10263;DHT22;5177;50.068;8.156;2022-07-05T06:58:54;22.00;99.90
10263;DHT22;5177;50.068;8.156;2022-07-05T07:01:19;22.00;99.90
10263;DHT22;5177;50.068;8.156;2022-07-05T07:03:45;22.10;99.90
10263;DHT22;5177;50.068;8.156;2022-07-05T07:06:12;22.10;99.90
10263;DHT22;5177;50.068;8.156;2022-07-05T07:08:38;22.30;99.90
10263;DHT22;5177;50.068;8.156;2022-07-05T07:11:22;22.40;99.90
10263;DHT22;5177;50.068;8.156;2022-07-05T07:13:47;22.50;99.90
10263;DHT22;5177;50.068;8.156;2022-07-05T07:16:13;22.70;99.90
10263;DHT22;5177;50.068;8.156;2022-07-05T07:18:39;22.70;99.90
10263;DHT22;5177;50.068;8.156;2022-07-05T07:21:04;22.80;99.90
10263;DHT22;5177;50.068;8.156;2022-07-05T07:23:30;22.80;99.90
10263;DHT22;5177;50.068;8.156;2022-07-05T07:25:56;22.80;99.90
10263;DHT22;5177;50.068;8.156;2022-07-05T07:28:21;23.00;99.90
10263;DHT22;5177;50.068;8.156;2022-07-05T07:30:47;23.10;99.90
10263;DHT22;5177;50.068;8.156;2022-07-05T07:33:12;23.20;99.90
10263;DHT22;5177;50.068;8.156;2022-07-05T07:35:38;23.40;99.90
10263;DHT22;5177;50.068;8.156;2022-07-05T07:38:03;23.50;99.90
10263;DHT22;5177;50.068;8.156;2022-07-05T07:40:29;23.60;99.90
10263;DHT22;5177;50.068;8.156;2022-07-05T07:42:54;23.70;99.90
10263;DHT22;5177;50.068;8.156;2022-07-05T07:45:20;23.70;99.90
10263;DHT22;5177;50.068;8.156;2022-07-05T07:47:45;23.80;99.90
10263;DHT22;5177;50.068;8.156;2022-07-05T07:50:11;23.90;99.90
10263;DHT22;5177;50.068;8.156;2022-07-05T07:52:36;24.00;99.90
10263;DHT22;5177;50.068;8.156;2022-07-05T07:55:03;24.20;99.90
10263;DHT22;5177;50.068;8.156;2022-07-05T07:57:29;24.30;99.90
10263;DHT22;5177;50.068;8.156;2022-07-05T07:59:54;24.40;99.90
10263;DHT22;5177;50.068;8.156;2022-07-05T08:02:20;24.50;99.90
10263;DHT22;5177;50.068;8.156;2022-07-05T08:04:48;24.70;99.90
10263;DHT22;5177;50.068;8.156;2022-07-05T08:07:14;24.80;99.90
10263;DHT22;5177;50.068;8.156;2022-07-05T08:09:40;24.80;99.90
10263;DHT22;5177;50.068;8.156;2022-07-05T08:12:05;24.90;99.90
10263;DHT22;5177;50.068;8.156;2022-07-05T08:14:31;24.90;99.90
10263;DHT22;5177;50.068;8.156;2022-07-05T08:16:57;25.00;99.90
10263;DHT22;5177;50.068;8.156;2022-07-05T08:19:23;25.20;99.90
10263;DHT22;5177;50.068;8.156;2022-07-05T08:22:08;25.20;99.90
10263;DHT22;5177;50.068;8.156;2022-07-05T08:24:34;25.40;99.90
10263;DHT22;5177;50.068;8.156;2022-07-05T08:26:59;25.50;99.90
10263;DHT22;5177;50.068;8.156;2022-07-05T08:29:25;25.60;99.90
10263;DHT22;5177;50.068;8.156;2022-07-05T08:31:51;25.90;99.90
10263;DHT22;5177;50.068;8.156;2022-07-05T08:34:17;26.00;99.90
10263;DHT22;5177;50.068;8.156;2022-07-05T08:36:45;26.10;99.90
10263;DHT22;5177;50.068;8.156;2022-07-05T08:39:11;26.10;99.90
10263;DHT22;5177;50.068;8.156;2022-07-05T08:41:37;26.30;99.90
10263;DHT22;5177;50.068;8.156;2022-07-05T08:44:04;26.50;99.90
10263;DHT22;5177;50.068;8.156;2022-07-05T08:46:29;26.60;99.90
10263;DHT22;5177;50.068;8.156;2022-07-05T08:48:55;26.60;99.90
10263;DHT22;5177;50.068;8.156;2022-07-05T08:51:23;26.60;99.90
10263;DHT22;5177;50.068;8.156;2022-07-05T08:53:50;26.30;99.90
10263;DHT22;5177;50.068;8.156;2022-07-05T08:56:16;26.20;99.90
10263;DHT22;5177;50.068;8.156;2022-07-05T08:58:42;26.00;99.90
10263;DHT22;5177;50.068;8.156;2022-07-05T09:01:08;26.40;99.90
10263;DHT22;5177;50.068;8.156;2022-07-05T09:03:36;26.60;99.90
10263;DHT22;5177;50.068;8.156;2022-07-05T09:06:02;26.80;99.90
10263;DHT22;5177;50.068;8.156;2022-07-05T09:08:29;27.00;99.90
10263;DHT22;5177;50.068;8.156;2022-07-05T09:10:55;27.40;99.90
10263;DHT22;5177;50.068;8.156;2022-07-05T09:13:21;27.60;99.90
10263;DHT22;5177;50.068;8.156;2022-07-05T09:15:46;27.90;99.90
10263;DHT22;5177;50.068;8.156;2022-07-05T09:18:12;27.80;99.90
10263;DHT22;5177;50.068;8.156;2022-07-05T09:20:37;27.90;98.40
10263;DHT22;5177;50.068;8.156;2022-07-05T09:23:03;27.80;97.40
10263;DHT22;5177;50.068;8.156;2022-07-05T09:25:29;27.80;96.00
10263;DHT22;5177;50.068;8.156;2022-07-05T09:27:56;27.80;97.10
10263;DHT22;5177;50.068;8.156;2022-07-05T09:30:25;27.80;96.50
10263;DHT22;5177;50.068;8.156;2022-07-05T09:35:29;26.90;97.00
10263;DHT22;5177;50.068;8.156;2022-07-05T09:37:55;27.10;98.00
10263;DHT22;5177;50.068;8.156;2022-07-05T09:40:21;27.40;98.00
10263;DHT22;5177;50.068;8.156;2022-07-05T09:42:47;27.40;98.80
10263;DHT22;5177;50.068;8.156;2022-07-05T09:45:13;27.40;98.40
10263;DHT22;5177;50.068;8.156;2022-07-05T09:47:46;27.30;98.70
10263;DHT22;5177;50.068;8.156;2022-07-05T09:50:12;27.20;97.30
10263;DHT22;5177;50.068;8.156;2022-07-05T09:52:39;27.40;97.10
10263;DHT22;5177;50.068;8.156;2022-07-05T09:55:11;27.60;96.50
10263;DHT22;5177;50.068;8.156;2022-07-05T09:57:40;28.00;95.60
10263;DHT22;5177;50.068;8.156;2022-07-05T10:00:13;28.40;94.50
10263;DHT22;5177;50.068;8.156;2022-07-05T10:02:40;28.60;95.10
10263;DHT22;5177;50.068;8.156;2022-07-05T10:05:18;28.70;93.80
10263;DHT22;5177;50.068;8.156;2022-07-05T10:07:48;28.90;92.30
10263;DHT22;5177;50.068;8.156;2022-07-05T10:10:15;29.10;91.30
10263;DHT22;5177;50.068;8.156;2022-07-05T10:12:44;29.20;91.50
10263;DHT22;5177;50.068;8.156;2022-07-05T10:15:10;29.30;92.10
10263;DHT22;5177;50.068;8.156;2022-07-05T10:17:38;29.40;90.30
10263;DHT22;5177;50.068;8.156;2022-07-05T10:20:05;29.50;87.90
10263;DHT22;5177;50.068;8.156;2022-07-05T10:22:34;29.60;85.80
10263;DHT22;5177;50.068;8.156;2022-07-05T10:25:00;29.50;84.40
10263;DHT22;5177;50.068;8.156;2022-07-05T10:27:27;29.30;85.80
10263;DHT22;5177;50.068;8.156;2022-07-05T10:29:53;29.30;83.70
10263;DHT22;5177;50.068;8.156;2022-07-05T10:32:19;29.50;85.10
10263;DHT22;5177;50.068;8.156;2022-07-05T10:34:46;29.60;82.80
10263;DHT22;5177;50.068;8.156;2022-07-05T10:37:12;29.80;83.90
10263;DHT22;5177;50.068;8.156;2022-07-05T10:39:38;29.70;84.60
10263;DHT22;5177;50.068;8.156;2022-07-05T10:42:05;29.70;83.80
10263;DHT22;5177;50.068;8.156;2022-07-05T10:44:31;29.40;83.70
10263;DHT22;5177;50.068;8.156;2022-07-05T10:47:08;29.10;82.90
10263;DHT22;5177;50.068;8.156;2022-07-05T10:49:36;28.90;83.40
10263;DHT22;5177;50.068;8.156;2022-07-05T10:52:03;29.10;85.40
10263;DHT22;5177;50.068;8.156;2022-07-05T10:54:29;29.60;84.00
10263;DHT22;5177;50.068;8.156;2022-07-05T11:00:12;30.00;80.70
10263;DHT22;5177;50.068;8.156;2022-07-05T11:02:31;29.50;80.80
10263;DHT22;5177;50.068;8.156;2022-07-05T11:04:57;29.30;79.30
10263;DHT22;5177;50.068;8.156;2022-07-05T11:10:07;29.60;78.30
10263;DHT22;5177;50.068;8.156;2022-07-05T11:12:36;29.60;79.80
10263;DHT22;5177;50.068;8.156;2022-07-05T11:15:05;30.00;76.60
10263;DHT22;5177;50.068;8.156;2022-07-05T11:17:33;30.40;76.50
10263;DHT22;5177;50.068;8.156;2022-07-05T11:20:02;30.60;75.30
10263;DHT22;5177;50.068;8.156;2022-07-05T11:22:28;30.90;75.30
10263;DHT22;5177;50.068;8.156;2022-07-05T11:24:54;31.00;72.20
10263;DHT22;5177;50.068;8.156;2022-07-05T11:27:20;31.50;71.60
10263;DHT22;5177;50.068;8.156;2022-07-05T11:29:47;31.60;70.30
10263;DHT22;5177;50.068;8.156;2022-07-05T11:32:14;31.70;66.90
10263;DHT22;5177;50.068;8.156;2022-07-05T11:34:41;31.50;66.20
10263;DHT22;5177;50.068;8.156;2022-07-05T11:39:38;31.70;64.30
10263;DHT22;5177;50.068;8.156;2022-07-05T11:42:04;31.90;64.40
10263;DHT22;5177;50.068;8.156;2022-07-05T11:44:32;31.80;60.90
10263;DHT22;5177;50.068;8.156;2022-07-05T11:46:58;31.70;62.10
10263;DHT22;5177;50.068;8.156;2022-07-05T11:49:24;32.10;62.90
10263;DHT22;5177;50.068;8.156;2022-07-05T11:52:00;31.40;63.20
10263;DHT22;5177;50.068;8.156;2022-07-05T11:54:32;31.10;64.20
10263;DHT22;5177;50.068;8.156;2022-07-05T11:56:58;30.80;66.80
10263;DHT22;5177;50.068;8.156;2022-07-05T11:59:24;31.20;65.30
10263;DHT22;5177;50.068;8.156;2022-07-05T12:01:50;31.40;65.70
10263;DHT22;5177;50.068;8.156;2022-07-05T12:06:48;30.60;65.60
10263;DHT22;5177;50.068;8.156;2022-07-05T12:09:15;29.90;67.40
10263;DHT22;5177;50.068;8.156;2022-07-05T12:11:50;30.00;69.40
10263;DHT22;5177;50.068;8.156;2022-07-05T12:14:34;29.70;67.10
10263;DHT22;5177;50.068;8.156;2022-07-05T12:17:15;30.20;65.60
10263;DHT22;5177;50.068;8.156;2022-07-05T12:19:41;30.60;63.80
10263;DHT22;5177;50.068;8.156;2022-07-05T12:22:07;31.00;64.90
10263;DHT22;5177;50.068;8.156;2022-07-05T12:24:33;31.60;63.60
10263;DHT22;5177;50.068;8.156;2022-07-05T12:26:59;31.40;62.70
10263;DHT22;5177;50.068;8.156;2022-07-05T12:29:24;31.40;62.50
10263;DHT22;5177;50.068;8.156;2022-07-05T12:32:03;31.40;60.60
10263;DHT22;5177;50.068;8.156;2022-07-05T12:34:29;30.90;61.80
10263;DHT22;5177;50.068;8.156;2022-07-05T12:36:56;30.40;61.70
10263;DHT22;5177;50.068;8.156;2022-07-05T12:39:22;30.50;62.50
10263;DHT22;5177;50.068;8.156;2022-07-05T12:41:47;31.10;60.50
10263;DHT22;5177;50.068;8.156;2022-07-05T12:44:13;31.50;62.00
10263;DHT22;5177;50.068;8.156;2022-07-05T12:46:43;31.50;62.00
10263;DHT22;5177;50.068;8.156;2022-07-05T12:49:09;31.30;59.40
10263;DHT22;5177;50.068;8.156;2022-07-05T12:51:36;31.70;61.20
10263;DHT22;5177;50.068;8.156;2022-07-05T12:54:02;32.00;58.70
10263;DHT22;5177;50.068;8.156;2022-07-05T12:56:47;32.20;57.70
10263;DHT22;5177;50.068;8.156;2022-07-05T12:59:31;32.30;56.90
10263;DHT22;5177;50.068;8.156;2022-07-05T13:01:56;32.50;55.40
10263;DHT22;5177;50.068;8.156;2022-07-05T13:04:22;32.60;55.20
10263;DHT22;5177;50.068;8.156;2022-07-05T13:06:54;32.90;57.00
10263;DHT22;5177;50.068;8.156;2022-07-05T13:12:08;33.40;56.50
10263;DHT22;5177;50.068;8.156;2022-07-05T13:14:34;33.50;55.00
10263;DHT22;5177;50.068;8.156;2022-07-05T13:17:00;33.50;54.60
10263;DHT22;5177;50.068;8.156;2022-07-05T13:19:26;32.60;54.40
10263;DHT22;5177;50.068;8.156;2022-07-05T13:21:51;32.60;55.30
10263;DHT22;5177;50.068;8.156;2022-07-05T13:24:17;33.10;55.30
10263;DHT22;5177;50.068;8.156;2022-07-05T13:26:42;33.30;54.80
10263;DHT22;5177;50.068;8.156;2022-07-05T13:29:09;33.50;54.50
10263;DHT22;5177;50.068;8.156;2022-07-05T13:31:35;33.70;55.30
10263;DHT22;5177;50.068;8.156;2022-07-05T13:34:00;33.70;52.90
10263;DHT22;5177;50.068;8.156;2022-07-05T13:36:26;32.90;53.30
10263;DHT22;5177;50.068;8.156;2022-07-05T13:38:51;32.40;53.00
10263;DHT22;5177;50.068;8.156;2022-07-05T13:41:17;32.80;53.40
10263;DHT22;5177;50.068;8.156;2022-07-05T13:43:43;33.00;52.40
10263;DHT22;5177;50.068;8.156;2022-07-05T13:46:10;33.20;54.40
10263;DHT22;5177;50.068;8.156;2022-07-05T13:48:36;33.70;54.10
10263;DHT22;5177;50.068;8.156;2022-07-05T13:51:02;34.20;54.00
10263;DHT22;5177;50.068;8.156;2022-07-05T13:53:28;34.60;54.20
10263;DHT22;5177;50.068;8.156;2022-07-05T13:55:53;34.90;52.50
10263;DHT22;5177;50.068;8.156;2022-07-05T13:58:19;34.40;50.50
10263;DHT22;5177;50.068;8.156;2022-07-05T14:00:44;33.50;52.40
10263;DHT22;5177;50.068;8.156;2022-07-05T14:03:10;33.40;52.60
10263;DHT22;5177;50.068;8.156;2022-07-05T14:05:35;33.80;53.00
10263;DHT22;5177;50.068;8.156;2022-07-05T14:08:01;33.20;52.70
10263;DHT22;5177;50.068;8.156;2022-07-05T14:10:26;33.60;52.80
10263;DHT22;5177;50.068;8.156;2022-07-05T14:12:52;34.50;53.70
10263;DHT22;5177;50.068;8.156;2022-07-05T14:15:17;35.00;51.30
10263;DHT22;5177;50.068;8.156;2022-07-05T14:17:43;36.00;51.20
10263;DHT22;5177;50.068;8.156;2022-07-05T14:20:09;36.30;52.30
10263;DHT22;5177;50.068;8.156;2022-07-05T14:22:35;36.40;51.70
10263;DHT22;5177;50.068;8.156;2022-07-05T14:25:00;36.60;49.90
10263;DHT22;5177;50.068;8.156;2022-07-05T14:27:26;36.00;49.30
10263;DHT22;5177;50.068;8.156;2022-07-05T14:29:51;34.70;49.60
10263;DHT22;5177;50.068;8.156;2022-07-05T14:32:17;34.50;51.50
10263;DHT22;5177;50.068;8.156;2022-07-05T14:34:42;35.40;51.40
10263;DHT22;5177;50.068;8.156;2022-07-05T14:37:08;35.40;50.30
10263;DHT22;5177;50.068;8.156;2022-07-05T14:39:33;34.60;51.50
10263;DHT22;5177;50.068;8.156;2022-07-05T14:41:59;33.70;51.90
10263;DHT22;5177;50.068;8.156;2022-07-05T14:44:24;33.40;52.80
10263;DHT22;5177;50.068;8.156;2022-07-05T14:46:50;32.90;53.80
10263;DHT22;5177;50.068;8.156;2022-07-05T14:49:15;32.40;55.80
10263;DHT22;5177;50.068;8.156;2022-07-05T14:51:40;32.00;55.00
10263;DHT22;5177;50.068;8.156;2022-07-05T14:54:06;31.90;56.00
10263;DHT22;5177;50.068;8.156;2022-07-05T14:56:32;31.70;56.60
10263;DHT22;5177;50.068;8.156;2022-07-05T14:58:57;31.30;57.50
10263;DHT22;5177;50.068;8.156;2022-07-05T15:01:23;31.00;58.20
10263;DHT22;5177;50.068;8.156;2022-07-05T15:03:48;31.50;57.30
10263;DHT22;5177;50.068;8.156;2022-07-05T15:06:13;32.90;56.70
10263;DHT22;5177;50.068;8.156;2022-07-05T15:08:42;34.60;53.30
10263;DHT22;5177;50.068;8.156;2022-07-05T15:11:07;35.90;50.40
10263;DHT22;5177;50.068;8.156;2022-07-05T15:13:33;36.10;51.00
10263;DHT22;5177;50.068;8.156;2022-07-05T15:16:00;36.30;50.70
10263;DHT22;5177;50.068;8.156;2022-07-05T15:18:25;36.50;49.50
10263;DHT22;5177;50.068;8.156;2022-07-05T15:20:51;36.50;49.90
10263;DHT22;5177;50.068;8.156;2022-07-05T15:23:17;35.90;49.80
10263;DHT22;5177;50.068;8.156;2022-07-05T15:25:42;35.40;49.80
10263;DHT22;5177;50.068;8.156;2022-07-05T15:28:08;36.20;48.40
10263;DHT22;5177;50.068;8.156;2022-07-05T15:30:36;36.10;48.70
10263;DHT22;5177;50.068;8.156;2022-07-05T15:33:01;36.00;49.90
10263;DHT22;5177;50.068;8.156;2022-07-05T15:35:27;36.30;49.80
10263;DHT22;5177;50.068;8.156;2022-07-05T15:37:53;36.90;49.50
10263;DHT22;5177;50.068;8.156;2022-07-05T15:40:18;36.70;49.80
10263;DHT22;5177;50.068;8.156;2022-07-05T15:42:44;36.10;49.80
10263;DHT22;5177;50.068;8.156;2022-07-05T15:45:09;36.00;50.10
10263;DHT22;5177;50.068;8.156;2022-07-05T15:47:35;35.60;49.70
10263;DHT22;5177;50.068;8.156;2022-07-05T15:50:03;34.80;51.30
10263;DHT22;5177;50.068;8.156;2022-07-05T15:52:29;34.00;52.60
10263;DHT22;5177;50.068;8.156;2022-07-05T15:54:54;32.90;54.20
10263;DHT22;5177;50.068;8.156;2022-07-05T15:57:20;32.00;55.10
10263;DHT22;5177;50.068;8.156;2022-07-05T15:59:48;31.30;56.00
10263;DHT22;5177;50.068;8.156;2022-07-05T16:02:13;30.80;57.70